TAF KVQQ
AMD KVQQ 090843Z 0909/1006 03003KT P6SM SCT009 OVC015 FM091500 06006KT P6SM SCT009 BKN015 BKN200 FM091800 09006KT P6SM SCT015 BKN025 BKN200 FM100000 03003KT P6SM SCT025 BKN040 BKN200 FM100200 00000KT 2SM BR SCT004 BKN012=
METAR KVQQ
WC KVQQ
WS KVQQ
WV KVQQ